createdAt,value
2023-03-21T00:00:41.123Z,12.08
2023-03-21T00:03:09.062Z,12.11
2023-03-21T00:05:43.194Z,12.14
2023-03-21T00:08:10.494Z,12.12
2023-03-21T00:10:43.546Z,12.13
2023-03-21T00:13:13.341Z,12.19
2023-03-21T00:16:01.856Z,12.21
2023-03-21T00:18:31.772Z,12.18
2023-03-21T00:21:29.417Z,12.12
2023-03-21T00:23:47.750Z,12.11
2023-03-21T00:26:15.496Z,12.12
2023-03-21T00:28:43.729Z,12.15
2023-03-21T00:31:11.444Z,12.13
2023-03-21T00:33:41.658Z,12.08
2023-03-21T00:36:10.132Z,12.02
2023-03-21T00:38:38.215Z,11.95
2023-03-21T00:41:20.930Z,11.96
2023-03-21T00:43:52.084Z,11.87
2023-03-21T00:46:19.682Z,11.78
2023-03-21T00:48:47.667Z,11.57
2023-03-21T00:51:27.209Z,11.35
2023-03-21T00:53:56.200Z,11.12
2023-03-21T00:56:26.781Z,10.94
2023-03-21T00:58:53.997Z,10.82
2023-03-21T01:01:21.204Z,10.70
2023-03-21T01:03:51.152Z,10.62
2023-03-21T01:06:19.723Z,10.61
2023-03-21T01:08:53.246Z,10.57
2023-03-21T01:11:24.401Z,10.53
2023-03-21T01:13:59.753Z,10.37
2023-03-21T01:16:32.470Z,10.36
2023-03-21T01:18:59.862Z,10.21
2023-03-21T01:21:27.136Z,10.11
2023-03-21T01:23:54.796Z,9.97
2023-03-21T01:26:21.938Z,9.96
2023-03-21T01:28:49.301Z,9.81
2023-03-21T01:31:17.341Z,9.74
2023-03-21T01:33:45.305Z,9.65
2023-03-21T01:36:25.293Z,9.56
2023-03-21T01:38:53.988Z,9.58
2023-03-21T01:41:42.467Z,9.53
2023-03-21T01:44:17.656Z,9.56
2023-03-21T01:47:03.891Z,9.58
2023-03-21T01:49:41.674Z,9.62
2023-03-21T01:52:21.075Z,9.51
2023-03-21T01:54:55.749Z,9.49
2023-03-21T01:57:41.057Z,9.43
2023-03-21T02:00:13.440Z,9.50
2023-03-21T02:02:58.050Z,9.74
2023-03-21T02:05:41.669Z,9.84
2023-03-21T02:08:09.116Z,9.93
2023-03-21T02:10:37.129Z,9.90
2023-03-21T02:13:09.720Z,9.84
2023-03-21T02:15:39.268Z,9.87
2023-03-21T02:18:15.447Z,9.90
2023-03-21T02:20:56.145Z,10.01
2023-03-21T02:23:45.702Z,10.07
2023-03-21T02:26:42.283Z,10.16
2023-03-21T02:29:32.773Z,10.22
2023-03-21T02:32:34.983Z,10.37
2023-03-21T02:35:29.985Z,10.47
2023-03-21T02:38:10.972Z,10.68
2023-03-21T02:40:43.002Z,10.83
2023-03-21T02:43:22.520Z,10.99
2023-03-21T02:45:54.927Z,11.14
2023-03-21T02:48:35.315Z,11.28
2023-03-21T02:51:11.550Z,11.28
2023-03-21T02:53:41.491Z,11.25
2023-03-21T02:56:10.821Z,11.18
2023-03-21T02:58:39.194Z,11.18
2023-03-21T03:01:09.138Z,11.10
2023-03-21T03:03:39.473Z,11.07
2023-03-21T03:06:19.524Z,11.00
2023-03-21T03:09:18.028Z,10.89
2023-03-21T03:11:45.562Z,10.85
2023-03-21T03:14:49.969Z,10.72
2023-03-21T03:17:32.594Z,10.71
2023-03-21T03:20:04.306Z,10.64
2023-03-21T03:22:44.065Z,10.58
2023-03-21T03:25:23.139Z,10.56
2023-03-21T03:27:58.754Z,10.55
2023-03-21T03:30:39.281Z,10.48
2023-03-21T03:33:10.620Z,10.42
2023-03-21T03:35:38.314Z,10.39
2023-03-21T03:38:06.995Z,10.35
2023-03-21T03:40:50.395Z,10.29
2023-03-21T03:43:24.357Z,10.27
2023-03-21T03:46:05.408Z,10.26
2023-03-21T03:48:36.067Z,10.22
2023-03-21T03:51:38.436Z,10.15
2023-03-21T03:54:13.088Z,10.17
2023-03-21T03:56:40.825Z,10.18
2023-03-21T03:59:08.420Z,10.14
2023-03-21T04:01:37.530Z,10.12
2023-03-21T04:04:12.980Z,10.07
2023-03-21T04:06:41.477Z,10.04
2023-03-21T04:09:19.070Z,10.01
2023-03-21T04:11:48.243Z,10.03
2023-03-21T04:14:15.853Z,10.01
2023-03-21T04:16:44.175Z,10.01
2023-03-21T04:19:11.407Z,10.05
2023-03-21T04:21:39.639Z,10.13
2023-03-21T04:24:07.474Z,10.18
2023-03-21T04:26:35.935Z,10.25
2023-03-21T04:29:07.584Z,10.26
2023-03-21T04:31:36.238Z,10.30
2023-03-21T04:34:09.875Z,10.28
2023-03-21T04:36:47.412Z,10.23
2023-03-21T04:39:15.235Z,10.23
2023-03-21T04:41:44.199Z,10.16
2023-03-21T04:44:12.219Z,10.12
2023-03-21T04:46:40.108Z,10.12
2023-03-21T04:49:08.145Z,10.05
2023-03-21T04:51:36.484Z,9.99
2023-03-21T04:54:05.896Z,10.02
2023-03-21T04:56:34.043Z,10.00
2023-03-21T04:59:10.764Z,10.07
2023-03-21T05:01:38.390Z,10.14
2023-03-21T05:04:05.869Z,10.25
2023-03-21T05:06:34.075Z,10.37
2023-03-21T05:09:07.061Z,10.44
2023-03-21T05:11:37.819Z,10.46
2023-03-21T05:14:09.822Z,10.55
2023-03-21T05:16:48.484Z,10.50
2023-03-21T05:19:17.484Z,10.41
2023-03-21T05:21:45.414Z,10.24
2023-03-21T05:24:15.659Z,10.17
2023-03-21T05:26:44.169Z,10.12
2023-03-21T05:29:12.366Z,10.21
2023-03-21T05:31:39.784Z,10.22
2023-03-21T05:34:07.385Z,10.38
2023-03-21T05:36:36.131Z,10.50
2023-03-21T05:39:03.963Z,10.54
2023-03-21T05:41:32.526Z,10.60
2023-03-21T05:44:02.970Z,10.64
2023-03-21T05:46:30.402Z,10.78
2023-03-21T05:48:58.054Z,10.79
2023-03-21T05:51:25.561Z,10.90
2023-03-21T05:53:52.815Z,11.02
2023-03-21T05:56:21.547Z,11.20
2023-03-21T05:58:49.507Z,11.30
2023-03-21T06:01:17.196Z,11.44
2023-03-21T06:03:45.508Z,11.51
2023-03-21T06:06:13.066Z,11.65
2023-03-21T06:08:40.416Z,11.70
2023-03-21T06:11:19.712Z,11.74
2023-03-21T06:13:47.440Z,11.86
2023-03-21T06:16:15.009Z,11.97
2023-03-21T06:18:42.346Z,12.10
2023-03-21T06:21:13.583Z,12.12
2023-03-21T06:23:41.100Z,12.27
2023-03-21T06:26:08.534Z,12.17
2023-03-21T06:28:36.741Z,12.32
2023-03-21T06:31:04.795Z,12.32
2023-03-21T06:33:32.160Z,12.27
2023-03-21T06:35:59.654Z,12.21
2023-03-21T06:38:27.618Z,12.31
2023-03-21T06:40:54.844Z,12.38
2023-03-21T06:43:22.987Z,12.19
2023-03-21T06:45:50.927Z,12.12
2023-03-21T06:48:18.366Z,12.05
2023-03-21T06:50:48.706Z,12.03
2023-03-21T06:53:17.314Z,12.01
2023-03-21T06:55:52.359Z,12.10
2023-03-21T06:58:21.005Z,12.27
2023-03-21T07:00:48.601Z,12.41
2023-03-21T07:03:16.928Z,12.39
2023-03-21T07:05:44.852Z,12.38
2023-03-21T07:08:14.084Z,12.46
2023-03-21T07:10:45.322Z,12.59
2023-03-21T07:13:13.905Z,12.71
2023-03-21T07:15:41.403Z,12.82
2023-03-21T07:18:09.669Z,12.73
2023-03-21T07:20:38.127Z,12.69
2023-03-21T07:23:05.737Z,12.57
2023-03-21T07:25:33.283Z,12.55
2023-03-21T07:28:01.166Z,12.61
2023-03-21T07:30:28.405Z,12.78
2023-03-21T07:32:55.624Z,12.89
2023-03-21T07:35:23.167Z,13.03
2023-03-21T07:37:50.433Z,13.23
2023-03-21T07:40:19.011Z,13.46
2023-03-21T07:42:48.803Z,13.57
2023-03-21T07:45:25.341Z,13.64
2023-03-21T07:47:53.935Z,13.70
2023-03-21T07:50:21.570Z,13.70
2023-03-21T07:52:48.949Z,13.81
2023-03-21T07:55:17.460Z,13.84
2023-03-21T07:57:44.811Z,13.94
2023-03-21T08:00:13.723Z,14.06
2023-03-21T08:02:42.689Z,14.20
2023-03-21T08:05:11.543Z,14.24
2023-03-21T08:07:38.715Z,14.29
2023-03-21T08:10:06.845Z,14.26
2023-03-21T08:12:33.986Z,14.32
2023-03-21T08:15:01.425Z,14.16
2023-03-21T08:17:29.035Z,14.08
2023-03-21T08:19:56.310Z,14.23
2023-03-21T08:22:23.478Z,14.45
2023-03-21T08:24:51.440Z,14.66
2023-03-21T08:27:20.732Z,14.66
2023-03-21T08:29:47.883Z,14.86
2023-03-21T08:32:18.558Z,14.87
2023-03-21T08:34:45.766Z,14.76
2023-03-21T08:37:13.025Z,14.72
2023-03-21T08:39:40.693Z,14.93
2023-03-21T08:42:07.996Z,15.11
2023-03-21T08:44:35.356Z,14.98
2023-03-21T08:47:02.990Z,15.18
2023-03-21T08:49:30.988Z,15.44
2023-03-21T08:51:58.091Z,15.33
2023-03-21T08:54:25.556Z,15.23
2023-03-21T08:56:53.466Z,15.32
2023-03-21T08:59:20.849Z,15.26
2023-03-21T09:01:48.505Z,15.15
2023-03-21T09:04:19.013Z,15.08
2023-03-21T09:06:48.823Z,15.10
2023-03-21T09:09:16.837Z,15.11
2023-03-21T09:11:44.301Z,15.06
2023-03-21T09:14:11.843Z,14.93
2023-03-21T09:16:39.443Z,14.95
2023-03-21T09:19:08.618Z,14.92
2023-03-21T09:21:36.101Z,15.02
2023-03-21T09:24:05.632Z,15.23
2023-03-21T09:26:33.495Z,15.35
2023-03-21T09:29:01.056Z,15.22
2023-03-21T09:31:28.735Z,15.18
2023-03-21T09:33:58.030Z,15.41
2023-03-21T09:36:27.314Z,15.33
2023-03-21T09:38:56.958Z,15.45
2023-03-21T09:41:59.331Z,15.53
2023-03-21T09:45:06.177Z,15.66
2023-03-21T09:47:39.936Z,15.98
2023-03-21T09:50:32.033Z,16.23
2023-03-21T09:53:10.750Z,16.08
2023-03-21T09:55:39.702Z,16.10
2023-03-21T09:58:21.142Z,16.10
2023-03-21T10:00:50.827Z,15.99
2023-03-21T10:03:24.614Z,16.10
2023-03-21T10:05:57.421Z,15.84
2023-03-21T10:08:28.006Z,15.75
2023-03-21T10:10:58.750Z,15.73
2023-03-21T10:13:29.687Z,15.81
2023-03-21T10:16:27.844Z,15.77
2023-03-21T10:18:56.492Z,15.90
2023-03-21T10:21:59.837Z,16.01
2023-03-21T10:24:20.697Z,16.10
2023-03-21T10:26:49.917Z,16.31
2023-03-21T10:29:19.135Z,16.27
2023-03-21T10:31:47.429Z,16.34
2023-03-21T10:34:23.657Z,16.36
2023-03-21T10:36:51.454Z,16.55
2023-03-21T10:39:24.609Z,16.44
2023-03-21T10:41:52.103Z,16.50
2023-03-21T10:44:19.845Z,16.54
2023-03-21T10:47:04.168Z,16.69
2023-03-21T10:49:40.286Z,16.74
2023-03-21T10:52:11.745Z,16.80
2023-03-21T10:54:39.274Z,16.89
2023-03-21T10:57:12.775Z,16.85
2023-03-21T10:59:58.028Z,16.68
2023-03-21T11:02:37.140Z,16.66
2023-03-21T11:05:26.371Z,16.81
2023-03-21T11:08:01.459Z,16.94
2023-03-21T11:10:53.348Z,16.62
2023-03-21T11:13:26.804Z,16.52
2023-03-21T11:16:04.382Z,16.54
2023-03-21T11:18:33.334Z,16.49
2023-03-21T11:21:05.824Z,16.76
2023-03-21T11:23:35.369Z,16.83
2023-03-21T11:26:03.781Z,16.95
2023-03-21T11:28:38.010Z,17.01
2023-03-21T11:31:07.011Z,17.09
2023-03-21T11:33:45.988Z,17.11
2023-03-21T11:36:16.612Z,17.15
2023-03-21T11:38:44.724Z,17.24
2023-03-21T11:41:23.156Z,17.41
2023-03-21T11:43:54.717Z,17.60
2023-03-21T11:46:31.501Z,17.70
2023-03-21T11:49:00.314Z,17.54
2023-03-21T11:52:03.913Z,17.61
2023-03-21T11:55:03.434Z,17.61
2023-03-21T11:57:34.184Z,17.63
2023-03-21T12:00:17.634Z,17.50
2023-03-21T12:02:57.495Z,17.46
2023-03-21T12:05:38.160Z,17.40
2023-03-21T12:08:28.598Z,17.46
2023-03-21T12:11:08.097Z,17.53
2023-03-21T12:13:44.545Z,17.63
2023-03-21T12:16:31.515Z,17.80
2023-03-21T12:19:21.735Z,17.70
2023-03-21T12:22:14.298Z,17.70
2023-03-21T12:24:47.310Z,17.83
2023-03-21T12:27:25.388Z,18.00
2023-03-21T12:30:11.682Z,18.04
2023-03-21T12:33:01.227Z,17.87
2023-03-21T12:35:31.641Z,17.37
2023-03-21T12:38:17.416Z,17.20
2023-03-21T12:41:06.655Z,17.12
2023-03-21T12:44:04.870Z,17.05
2023-03-21T12:46:52.891Z,17.01
2023-03-21T12:49:23.152Z,16.90
2023-03-21T12:51:55.229Z,16.87
2023-03-21T12:54:41.832Z,17.11
2023-03-21T12:57:31.076Z,17.46
2023-03-21T13:00:13.257Z,17.66
2023-03-21T13:02:45.192Z,17.56
2023-03-21T13:05:27.666Z,17.42
2023-03-21T13:08:00.408Z,17.49
2023-03-21T13:10:27.880Z,17.32
2023-03-21T13:13:19.656Z,17.22
2023-03-21T13:16:24.183Z,17.12
2023-03-21T13:19:25.678Z,16.87
2023-03-21T13:22:12.012Z,16.74
2023-03-21T13:24:43.990Z,16.75
2023-03-21T13:27:26.403Z,16.72
2023-03-21T13:30:00.029Z,16.66
2023-03-21T13:32:31.176Z,16.67
2023-03-21T13:35:00.022Z,16.89
2023-03-21T13:37:34.821Z,17.13
2023-03-21T13:40:12.965Z,17.13
2023-03-21T13:42:51.834Z,16.87
2023-03-21T13:45:36.386Z,16.69
2023-03-21T13:48:06.473Z,16.49
2023-03-21T13:50:37.030Z,16.56
2023-03-21T13:53:13.483Z,16.57
2023-03-21T13:55:44.524Z,16.48
2023-03-21T13:58:40.698Z,16.48
2023-03-21T14:01:25.047Z,16.56
2023-03-21T14:04:18.836Z,16.63
2023-03-21T14:06:49.057Z,16.70
2023-03-21T14:09:25.115Z,16.93
2023-03-21T14:11:56.660Z,17.22
2023-03-21T14:14:47.864Z,17.31
2023-03-21T14:17:21.982Z,17.45
2023-03-21T14:20:12.330Z,17.53
2023-03-21T14:22:40.200Z,17.65
2023-03-21T14:25:15.661Z,17.71
2023-03-21T14:27:46.153Z,17.60
2023-03-21T14:30:23.369Z,17.56
2023-03-21T14:32:50.733Z,17.46
2023-03-21T14:35:18.250Z,17.23
2023-03-21T14:37:46.645Z,17.02
2023-03-21T14:40:24.298Z,16.98
2023-03-21T14:42:52.214Z,16.99
2023-03-21T14:45:20.864Z,17.01
2023-03-21T14:48:17.871Z,17.01
2023-03-21T14:50:54.903Z,17.11
2023-03-21T14:53:25.568Z,17.29
2023-03-21T14:56:16.998Z,17.43
2023-03-21T14:58:45.815Z,17.71
2023-03-21T15:01:34.577Z,17.75
2023-03-21T15:04:05.522Z,17.80
2023-03-21T15:06:33.204Z,17.76
2023-03-21T15:09:03.945Z,17.49
2023-03-21T15:11:31.040Z,17.34
2023-03-21T15:14:00.965Z,17.08
2023-03-21T15:16:28.255Z,16.81
2023-03-21T15:18:55.567Z,16.55
2023-03-21T15:21:34.944Z,16.52
2023-03-21T15:24:05.877Z,16.62
2023-03-21T15:26:33.273Z,16.62
2023-03-21T15:29:00.696Z,16.56
2023-03-21T15:31:34.760Z,16.58
2023-03-21T15:34:03.807Z,16.63
2023-03-21T15:36:40.836Z,16.72
2023-03-21T15:39:11.507Z,16.76
2023-03-21T15:41:38.670Z,16.69
2023-03-21T15:44:08.941Z,16.65
2023-03-21T15:46:42.528Z,16.65
2023-03-21T15:49:15.518Z,16.58
2023-03-21T15:51:56.394Z,16.46
2023-03-21T15:54:27.198Z,16.51
2023-03-21T15:56:56.462Z,16.49
2023-03-21T15:59:25.883Z,16.42
2023-03-21T16:01:53.273Z,16.39
2023-03-21T16:04:21.059Z,16.25
2023-03-21T16:06:58.554Z,16.23
2023-03-21T16:09:26.084Z,16.25
2023-03-21T16:11:55.531Z,16.26
2023-03-21T16:14:23.767Z,16.17
2023-03-21T16:16:51.365Z,16.17
2023-03-21T16:19:18.563Z,16.13
2023-03-21T16:21:46.059Z,15.98
2023-03-21T16:24:13.626Z,15.92
2023-03-21T16:26:50.824Z,15.91
2023-03-21T16:29:19.414Z,15.86
2023-03-21T16:31:48.440Z,15.84
2023-03-21T16:34:15.698Z,15.82
2023-03-21T16:36:44.003Z,15.69
2023-03-21T16:39:19.941Z,15.65
2023-03-21T16:41:47.733Z,15.64
2023-03-21T16:44:15.009Z,15.60
2023-03-21T16:46:42.370Z,15.53
2023-03-21T16:49:19.761Z,15.43
2023-03-21T16:51:47.028Z,15.41
2023-03-21T16:54:14.472Z,15.36
2023-03-21T16:56:50.655Z,15.33
2023-03-21T16:59:18.202Z,15.18
2023-03-21T17:01:46.238Z,15.10
2023-03-21T17:04:13.694Z,15.03
2023-03-21T17:06:44.794Z,14.97
2023-03-21T17:09:14.292Z,14.87
2023-03-21T17:11:42.192Z,14.77
2023-03-21T17:14:10.655Z,14.65
2023-03-21T17:16:43.088Z,14.57
2023-03-21T17:19:19.137Z,14.47
2023-03-21T17:21:46.620Z,14.39
2023-03-21T17:24:14.151Z,14.34
2023-03-21T17:26:41.648Z,14.25
2023-03-21T17:29:13.248Z,14.20
2023-03-21T17:31:41.110Z,14.14
2023-03-21T17:34:09.706Z,14.07
2023-03-21T17:36:39.413Z,14.02
2023-03-21T17:39:09.516Z,13.95
2023-03-21T17:41:36.795Z,13.95
2023-03-21T17:44:04.048Z,13.92
2023-03-21T17:46:36.808Z,13.87
2023-03-21T17:49:05.631Z,13.81
2023-03-21T17:51:33.398Z,13.83
2023-03-21T17:54:00.858Z,13.77
2023-03-21T17:56:30.878Z,13.73
2023-03-21T17:59:04.280Z,13.69
2023-03-21T18:01:31.864Z,13.62
2023-03-21T18:04:02.645Z,13.61
2023-03-21T18:06:29.967Z,13.50
2023-03-21T18:08:59.381Z,13.51
2023-03-21T18:11:27.891Z,13.48
2023-03-21T18:14:03.790Z,13.45
2023-03-21T18:16:37.670Z,13.39
2023-03-21T18:19:04.969Z,13.34
2023-03-21T18:21:33.102Z,13.26
2023-03-21T18:24:00.690Z,13.25
2023-03-21T18:26:27.944Z,13.22
2023-03-21T18:29:47.326Z,13.17
2023-03-21T18:31:51.574Z,13.15
2023-03-21T18:34:24.875Z,13.12
2023-03-21T18:36:52.357Z,13.07
2023-03-21T18:39:22.225Z,13.04
2023-03-21T18:41:50.005Z,12.95
2023-03-21T18:44:24.089Z,12.82
2023-03-21T18:46:52.329Z,12.70
2023-03-21T18:50:05.408Z,12.64
2023-03-21T18:52:08.674Z,12.59
2023-03-21T18:54:39.173Z,12.60
2023-03-21T18:57:34.220Z,12.61
2023-03-21T18:59:57.043Z,12.54
2023-03-21T19:02:24.261Z,12.54
2023-03-21T19:04:51.569Z,12.63
2023-03-21T19:07:19.228Z,12.61
2023-03-21T19:10:10.641Z,12.58
2023-03-21T19:12:34.133Z,12.55
2023-03-21T19:15:02.153Z,12.52
2023-03-21T19:20:16.811Z,12.56
2023-03-21T19:22:44.703Z,12.58
2023-03-21T19:25:13.221Z,12.59
2023-03-21T19:27:40.704Z,12.60
2023-03-21T19:30:14.749Z,12.60
2023-03-21T19:32:44.353Z,12.63
2023-03-21T19:35:12.483Z,12.64
2023-03-21T19:37:39.927Z,12.66
2023-03-21T19:40:08.484Z,12.61
2023-03-21T19:42:36.535Z,12.58
2023-03-21T19:45:05.398Z,12.60
2023-03-21T19:47:32.986Z,12.57
2023-03-21T19:52:47.867Z,12.54
2023-03-21T19:55:15.457Z,12.58
2023-03-21T19:57:42.744Z,12.60
2023-03-21T20:00:11.464Z,12.58
2023-03-21T20:02:39.727Z,12.58
2023-03-21T20:05:07.779Z,12.49
2023-03-21T20:07:35.491Z,12.44
2023-03-21T20:10:03.342Z,12.44
2023-03-21T20:12:32.630Z,12.43
2023-03-21T20:15:12.116Z,12.37
2023-03-21T20:17:44.248Z,12.34
2023-03-21T20:20:15.326Z,12.25
2023-03-21T20:23:05.630Z,12.14
2023-03-21T20:25:33.198Z,12.03
2023-03-21T20:28:15.097Z,12.04
2023-03-21T20:30:52.958Z,12.07
2023-03-21T20:33:20.305Z,11.91
2023-03-21T20:38:36.452Z,11.82
2023-03-21T20:41:05.811Z,11.82
2023-03-21T20:46:21.374Z,11.92
2023-03-21T20:48:49.702Z,11.88
2023-03-21T20:52:18.573Z,11.94
2023-03-21T20:54:06.167Z,11.95
2023-03-21T20:56:33.542Z,11.97
2023-03-21T20:59:14.993Z,11.96
2023-03-21T21:01:45.309Z,11.97
2023-03-21T21:04:19.214Z,11.97
2023-03-21T21:06:47.497Z,11.96
2023-03-21T21:09:15.736Z,11.91
2023-03-21T21:12:06.165Z,11.88
2023-03-21T21:14:30.641Z,11.79
2023-03-21T21:16:58.943Z,11.81
2023-03-21T21:19:26.987Z,11.83
2023-03-21T21:21:54.508Z,11.77
2023-03-21T21:24:21.705Z,11.72
2023-03-21T21:26:48.886Z,11.69
2023-03-21T21:29:17.262Z,11.74
2023-03-21T21:31:46.764Z,11.75
2023-03-21T21:34:15.615Z,11.75
2023-03-21T21:36:44.884Z,11.76
2023-03-21T21:39:15.971Z,11.75
2023-03-21T21:41:43.590Z,11.74
2023-03-21T21:44:11.340Z,11.82
2023-03-21T21:46:38.874Z,11.85
2023-03-21T21:49:06.670Z,11.85
2023-03-21T21:51:34.090Z,11.86
2023-03-21T21:54:03.594Z,11.80
2023-03-21T21:56:32.174Z,11.80
2023-03-21T21:59:01.974Z,11.94
2023-03-21T22:01:30.583Z,11.70
2023-03-21T22:04:06.081Z,11.47
2023-03-21T22:06:34.366Z,11.24
2023-03-21T22:09:02.344Z,10.93
2023-03-21T22:11:29.553Z,10.94
2023-03-21T22:13:56.951Z,10.87
2023-03-21T22:16:24.506Z,10.63
2023-03-21T22:18:51.701Z,10.34
2023-03-21T22:21:18.914Z,10.02
2023-03-21T22:23:46.424Z,9.88
2023-03-21T22:26:13.912Z,9.68
2023-03-21T22:28:42.397Z,9.75
2023-03-21T22:31:13.493Z,9.89
2023-03-21T22:33:40.901Z,10.13
2023-03-21T22:36:08.982Z,10.37
2023-03-21T22:38:38.012Z,10.96
2023-03-21T22:41:06.403Z,11.27
2023-03-21T22:43:34.366Z,11.81
2023-03-21T22:46:03.637Z,12.00
2023-03-21T22:48:31.370Z,11.63
2023-03-21T22:50:59.576Z,11.29
2023-03-21T22:53:27.378Z,10.91
2023-03-21T22:55:55.050Z,10.68
2023-03-21T22:58:22.274Z,10.66
2023-03-21T23:00:49.865Z,10.44
2023-03-21T23:03:17.183Z,10.29
2023-03-21T23:05:45.236Z,10.06
2023-03-21T23:08:13.225Z,9.76
2023-03-21T23:10:43.300Z,9.57
2023-03-21T23:13:10.807Z,9.34
2023-03-21T23:15:38.703Z,9.25
2023-03-21T23:18:06.221Z,9.09
2023-03-21T23:20:33.416Z,8.82
2023-03-21T23:23:00.917Z,8.65
2023-03-21T23:25:29.006Z,8.51
2023-03-21T23:27:56.455Z,8.47
2023-03-21T23:30:24.307Z,8.39
2023-03-21T23:32:51.928Z,8.33
2023-03-21T23:35:19.270Z,8.32
2023-03-21T23:37:51.974Z,8.08
2023-03-21T23:40:20.521Z,8.02
2023-03-21T23:42:48.016Z,8.05
2023-03-21T23:45:15.576Z,8.07
2023-03-21T23:47:42.824Z,7.98
2023-03-21T23:50:10.880Z,7.88
2023-03-21T23:52:38.315Z,7.83
2023-03-21T23:55:06.309Z,7.81
2023-03-21T23:57:33.879Z,7.83
